createdAt,value
2023-03-26T00:00:31.332Z,6.57
2023-03-26T00:03:04.535Z,6.32
2023-03-26T00:05:34.474Z,6.45
2023-03-26T00:08:02.815Z,6.39
2023-03-26T00:10:33.538Z,6.40
2023-03-26T00:13:01.683Z,6.31
2023-03-26T00:15:30.197Z,6.28
2023-03-26T00:17:58.700Z,6.22
2023-03-26T00:20:32.956Z,6.14
2023-03-26T00:23:02.575Z,6.16
2023-03-26T00:25:31.824Z,6.28
2023-03-26T00:28:03.993Z,6.29
2023-03-26T00:30:32.209Z,6.35
2023-03-26T00:33:00.868Z,6.41
2023-03-26T00:35:29.887Z,6.52
2023-03-26T00:37:58.366Z,6.60
2023-03-26T00:40:32.100Z,6.62
2023-03-26T00:43:00.601Z,6.59
2023-03-26T00:45:28.739Z,6.57
2023-03-26T00:47:57.173Z,6.55
2023-03-26T00:50:25.370Z,6.49
2023-03-26T00:52:56.021Z,6.43
2023-03-26T00:55:24.201Z,6.35
2023-03-26T00:57:55.622Z,6.30
2023-03-26T01:00:31.820Z,6.21
2023-03-26T01:03:27.608Z,6.12
2023-03-26T01:06:04.764Z,6.10
2023-03-26T01:08:35.334Z,6.06
2023-03-26T01:11:13.906Z,6.03
2023-03-26T01:13:48.659Z,5.99
2023-03-26T01:16:22.071Z,5.96
2023-03-26T01:18:52.896Z,5.94
2023-03-26T01:21:23.756Z,5.86
2023-03-26T01:23:59.897Z,5.86
2023-03-26T01:26:43.225Z,5.84
2023-03-26T01:29:20.884Z,5.85
2023-03-26T01:32:03.007Z,5.85
2023-03-26T01:34:47.075Z,5.85
2023-03-26T01:37:23.839Z,5.90
2023-03-26T01:39:57.502Z,5.93
2023-03-26T01:42:35.059Z,5.92
2023-03-26T01:45:11.305Z,5.92
2023-03-26T01:47:44.482Z,5.94
2023-03-26T01:50:15.769Z,5.90
2023-03-26T01:52:46.346Z,5.89
2023-03-26T01:55:16.226Z,5.90
2023-03-26T01:57:56.240Z,5.89
2023-03-26T02:00:31.134Z,5.91
2023-03-26T02:03:21.494Z,5.91
2023-03-26T02:05:56.622Z,5.89
2023-03-26T02:08:35.632Z,5.87
2023-03-26T02:11:11.735Z,5.85
2023-03-26T02:13:41.345Z,5.86
2023-03-26T02:16:14.137Z,5.80
2023-03-26T02:18:42.646Z,5.73
2023-03-26T02:21:13.607Z,5.73
2023-03-26T02:23:47.126Z,5.71
2023-03-26T02:26:17.550Z,5.75
2023-03-26T02:29:01.844Z,5.76
2023-03-26T02:31:30.382Z,5.74
2023-03-26T02:34:01.088Z,5.75
2023-03-26T02:36:35.924Z,5.78
2023-03-26T02:39:05.907Z,5.59
2023-03-26T02:41:39.203Z,5.81
2023-03-26T02:44:13.056Z,5.82
2023-03-26T02:46:58.995Z,5.86
2023-03-26T02:49:50.595Z,5.88
2023-03-26T02:52:40.047Z,5.89
2023-03-26T02:55:10.818Z,5.93
2023-03-26T02:57:42.526Z,5.97
2023-03-26T03:00:22.277Z,5.99
2023-03-26T03:02:57.979Z,6.00
2023-03-26T03:05:32.872Z,6.01
2023-03-26T03:08:21.884Z,6.06
2023-03-26T03:11:24.988Z,6.10
2023-03-26T03:13:57.650Z,6.12
2023-03-26T03:16:28.745Z,6.13
2023-03-26T03:19:01.867Z,6.15
2023-03-26T03:21:37.616Z,6.15
2023-03-26T03:24:06.578Z,6.14
2023-03-26T03:26:38.469Z,6.13
2023-03-26T03:29:35.091Z,6.11
2023-03-26T03:32:24.398Z,6.10
2023-03-26T03:34:55.763Z,6.08
2023-03-26T03:37:24.667Z,6.06
2023-03-26T03:39:55.692Z,6.03
2023-03-26T03:42:27.470Z,6.03
2023-03-26T03:44:59.935Z,6.07
2023-03-26T03:47:46.292Z,6.08
2023-03-26T03:50:17.518Z,6.06
2023-03-26T03:53:06.802Z,6.06
2023-03-26T03:55:38.397Z,6.02
2023-03-26T03:58:09.110Z,6.01
2023-03-26T04:00:41.821Z,6.01
2023-03-26T04:03:33.195Z,5.84
2023-03-26T04:06:08.057Z,5.98
2023-03-26T04:08:36.436Z,5.98
2023-03-26T04:11:07.286Z,5.97
2023-03-26T04:14:04.582Z,6.00
2023-03-26T04:16:52.955Z,6.04
2023-03-26T04:19:21.510Z,6.06
2023-03-26T04:21:50.535Z,6.04
2023-03-26T04:24:22.429Z,6.10
2023-03-26T04:27:16.055Z,6.17
2023-03-26T04:29:49.647Z,6.25
2023-03-26T04:32:26.643Z,6.23
2023-03-26T04:34:55.730Z,6.21
2023-03-26T04:37:32.513Z,6.18
2023-03-26T04:40:15.063Z,6.13
2023-03-26T04:43:06.728Z,6.15
2023-03-26T04:46:02.845Z,6.11
2023-03-26T04:48:35.428Z,6.09
2023-03-26T04:51:03.681Z,5.90
2023-03-26T04:53:32.019Z,6.07
2023-03-26T04:56:35.620Z,6.04
2023-03-26T04:59:26.511Z,6.05
2023-03-26T05:01:58.037Z,6.08
2023-03-26T05:04:34.140Z,6.08
2023-03-26T05:07:03.403Z,6.17
2023-03-26T05:09:38.216Z,6.24
2023-03-26T05:12:16.578Z,6.29
2023-03-26T05:14:59.336Z,6.42
2023-03-26T05:17:55.691Z,6.52
2023-03-26T05:20:34.398Z,6.53
2023-03-26T05:23:04.498Z,6.56
2023-03-26T05:25:35.858Z,6.56
2023-03-26T05:28:07.417Z,6.53
2023-03-26T05:30:54.461Z,6.54
2023-03-26T05:33:25.180Z,6.53
2023-03-26T05:36:09.183Z,6.59
2023-03-26T05:38:38.000Z,6.55
2023-03-26T05:41:10.279Z,6.51
2023-03-26T05:43:43.760Z,6.45
2023-03-26T05:46:20.294Z,6.30
2023-03-26T05:48:48.752Z,6.23
2023-03-26T05:51:18.492Z,6.13
2023-03-26T05:53:58.883Z,6.00
2023-03-26T05:56:33.154Z,5.84
2023-03-26T05:59:19.841Z,5.62
2023-03-26T06:02:06.537Z,5.65
2023-03-26T06:05:12.514Z,5.63
2023-03-26T06:07:47.992Z,5.59
2023-03-26T06:10:19.278Z,5.58
2023-03-26T06:12:47.811Z,5.55
2023-03-26T06:15:16.270Z,5.62
2023-03-26T06:18:06.962Z,5.62
2023-03-26T06:23:23.343Z,5.49
2023-03-26T06:26:13.974Z,5.48
2023-03-26T06:28:50.696Z,5.52
2023-03-26T06:31:37.688Z,5.53
2023-03-26T06:34:25.094Z,5.30
2023-03-26T06:36:53.586Z,5.55
2023-03-26T06:39:24.623Z,5.54
2023-03-26T06:42:05.546Z,5.58
2023-03-26T06:45:03.400Z,5.62
2023-03-26T06:47:50.172Z,5.65
2023-03-26T06:50:45.654Z,5.71
2023-03-26T06:53:32.733Z,5.78
2023-03-26T06:56:37.101Z,5.89
2023-03-26T06:59:21.687Z,5.89
2023-03-26T07:02:08.607Z,5.88
2023-03-26T07:04:55.480Z,5.89
2023-03-26T07:07:46.216Z,5.93
2023-03-26T07:10:33.458Z,5.93
2023-03-26T07:13:23.180Z,5.92
2023-03-26T07:16:00.140Z,5.93
2023-03-26T07:18:31.636Z,5.94
2023-03-26T07:21:01.435Z,5.97
2023-03-26T07:23:35.805Z,5.93
2023-03-26T07:26:29.219Z,5.82
2023-03-26T07:29:17.591Z,5.87
2023-03-26T07:32:12.616Z,6.03
2023-03-26T07:35:00.216Z,6.12
2023-03-26T07:37:50.150Z,6.18
2023-03-26T07:40:29.282Z,6.07
2023-03-26T07:43:32.819Z,6.15
2023-03-26T07:46:14.153Z,6.20
2023-03-26T07:48:58.600Z,6.28
2023-03-26T07:51:38.876Z,6.28
2023-03-26T07:54:07.803Z,6.34
2023-03-26T07:57:06.683Z,6.41
2023-03-26T07:59:52.407Z,6.25
2023-03-26T08:03:05.762Z,6.21
2023-03-26T08:06:01.139Z,6.29
2023-03-26T08:08:54.963Z,6.24
2023-03-26T08:11:48.980Z,6.29
2023-03-26T08:14:40.928Z,6.21
2023-03-26T08:17:12.877Z,6.11
2023-03-26T08:20:05.792Z,6.07
2023-03-26T08:22:37.596Z,6.06
2023-03-26T08:25:21.942Z,6.08
2023-03-26T08:28:03.073Z,6.03
2023-03-26T08:30:32.605Z,6.04
2023-03-26T08:33:06.413Z,6.04
2023-03-26T08:35:37.913Z,6.06
2023-03-26T08:38:10.024Z,6.08
2023-03-26T08:41:05.468Z,6.15
2023-03-26T08:44:13.745Z,6.20
2023-03-26T08:47:24.362Z,6.29
2023-03-26T08:50:18.448Z,6.50
2023-03-26T08:53:24.043Z,7.44
2023-03-26T08:56:02.422Z,7.24
2023-03-26T08:59:01.890Z,7.30
2023-03-26T09:01:58.153Z,6.94
2023-03-26T09:05:06.477Z,6.68
2023-03-26T09:07:53.705Z,6.68
2023-03-26T09:10:56.352Z,6.65
2023-03-26T09:14:04.492Z,6.64
2023-03-26T09:17:08.799Z,6.69
2023-03-26T09:20:04.007Z,7.50
2023-03-26T09:23:07.084Z,7.73
2023-03-26T09:25:46.392Z,7.65
2023-03-26T09:28:50.282Z,7.31
2023-03-26T09:31:34.562Z,6.88
2023-03-26T09:34:20.214Z,6.69
2023-03-26T09:36:57.635Z,6.68
2023-03-26T09:39:38.812Z,6.74
2023-03-26T09:42:11.812Z,6.75
2023-03-26T09:45:04.546Z,6.62
2023-03-26T09:48:05.535Z,6.41
2023-03-26T09:50:50.133Z,6.86
2023-03-26T09:53:43.608Z,6.95
2023-03-26T09:56:26.975Z,7.09
2023-03-26T09:59:20.926Z,7.58
2023-03-26T10:01:54.634Z,8.09
2023-03-26T10:04:46.073Z,8.32
2023-03-26T10:07:31.802Z,9.07
2023-03-26T10:10:05.354Z,9.40
2023-03-26T10:12:38.496Z,9.27
2023-03-26T10:15:22.831Z,10.01
2023-03-26T10:18:26.724Z,10.71
2023-03-26T10:21:06.220Z,11.55
2023-03-26T10:23:51.670Z,11.62
2023-03-26T10:26:39.530Z,11.68
2023-03-26T10:29:27.359Z,11.20
2023-03-26T10:32:11.133Z,10.33
2023-03-26T10:34:56.684Z,10.09
2023-03-26T10:37:37.573Z,9.49
2023-03-26T10:40:18.023Z,9.40
2023-03-26T10:43:22.214Z,9.27
2023-03-26T10:46:07.481Z,9.33
2023-03-26T10:48:52.406Z,9.38
2023-03-26T10:51:29.525Z,9.24
2023-03-26T10:54:03.044Z,9.09
2023-03-26T10:56:36.640Z,9.03
2023-03-26T10:59:09.526Z,8.69
2023-03-26T11:01:44.810Z,8.53
2023-03-26T11:04:25.672Z,8.97
2023-03-26T11:07:05.430Z,10.88
2023-03-26T11:09:44.571Z,12.18
2023-03-26T11:12:26.898Z,13.21
2023-03-26T11:15:07.090Z,14.05
2023-03-26T11:17:46.919Z,15.03
2023-03-26T11:20:20.177Z,15.28
2023-03-26T11:24:53.566Z,13.09
2023-03-26T11:27:32.388Z,12.22
2023-03-26T11:30:12.359Z,11.60
2023-03-26T11:32:43.930Z,11.58
2023-03-26T11:35:41.142Z,11.27
2023-03-26T11:38:19.278Z,11.03
2023-03-26T11:40:51.609Z,10.87
2023-03-26T11:43:34.332Z,11.57
2023-03-26T11:46:08.785Z,11.95
2023-03-26T11:48:44.153Z,13.08
2023-03-26T11:51:17.761Z,14.14
2023-03-26T11:53:48.254Z,14.59
2023-03-26T11:56:28.021Z,15.26
2023-03-26T11:59:01.350Z,15.49
2023-03-26T12:01:41.704Z,15.21
2023-03-26T12:04:13.541Z,15.42
2023-03-26T12:06:52.677Z,16.10
2023-03-26T12:09:21.584Z,15.29
2023-03-26T12:11:56.080Z,15.77
2023-03-26T12:14:27.306Z,16.10
2023-03-26T12:17:03.475Z,16.46
2023-03-26T12:19:42.712Z,16.86
2023-03-26T12:22:30.022Z,15.64
2023-03-26T12:25:02.814Z,14.63
2023-03-26T12:27:33.388Z,14.01
2023-03-26T12:30:12.244Z,13.25
2023-03-26T12:32:46.820Z,12.83
2023-03-26T12:35:19.530Z,12.71
2023-03-26T12:37:48.801Z,12.32
2023-03-26T12:40:32.544Z,12.01
2023-03-26T12:44:48.636Z,11.96
2023-03-26T12:46:03.584Z,11.69
2023-03-26T12:48:44.989Z,11.59
2023-03-26T12:51:27.571Z,10.90
2023-03-26T12:54:42.591Z,10.75
2023-03-26T12:57:21.431Z,10.70
2023-03-26T13:00:20.222Z,10.73
2023-03-26T13:03:12.107Z,10.62
2023-03-26T13:05:54.567Z,10.74
2023-03-26T13:08:43.125Z,11.00
2023-03-26T13:11:20.854Z,11.20
2023-03-26T13:14:03.111Z,12.13
2023-03-26T13:16:38.961Z,12.89
2023-03-26T13:19:12.199Z,13.03
2023-03-26T13:21:57.715Z,13.01
2023-03-26T13:24:39.130Z,13.32
2023-03-26T13:27:20.992Z,13.59
2023-03-26T13:29:58.773Z,13.33
2023-03-26T13:32:39.649Z,13.16
2023-03-26T13:35:20.569Z,13.23
2023-03-26T13:37:56.887Z,13.41
2023-03-26T13:40:38.330Z,13.10
2023-03-26T13:43:23.063Z,13.25
2023-03-26T13:45:58.052Z,13.09
2023-03-26T13:48:31.207Z,12.88
2023-03-26T13:51:03.130Z,13.05
2023-03-26T13:53:43.081Z,12.84
2023-03-26T13:56:14.807Z,12.87
2023-03-26T13:58:46.205Z,12.68
2023-03-26T14:01:17.989Z,12.88
2023-03-26T14:03:57.145Z,12.67
2023-03-26T14:06:43.524Z,12.66
2023-03-26T14:09:19.046Z,12.61
2023-03-26T14:12:01.591Z,12.56
2023-03-26T14:14:38.492Z,12.39
2023-03-26T14:17:18.393Z,12.34
2023-03-26T14:20:40.124Z,12.65
2023-03-26T14:23:23.997Z,12.61
2023-03-26T14:26:06.827Z,12.74
2023-03-26T14:28:59.235Z,12.77
2023-03-26T14:31:34.985Z,12.80
2023-03-26T14:34:25.543Z,12.67
2023-03-26T14:37:27.878Z,12.57
2023-03-26T14:40:18.153Z,12.42
2023-03-26T14:42:56.506Z,12.23
2023-03-26T14:45:55.716Z,12.40
2023-03-26T14:48:49.378Z,12.33
2023-03-26T14:51:34.104Z,12.22
2023-03-26T14:54:12.511Z,12.15
2023-03-26T14:56:58.220Z,12.04
2023-03-26T15:00:05.866Z,11.79
2023-03-26T15:03:12.748Z,11.66
2023-03-26T15:06:18.229Z,11.58
2023-03-26T15:09:27.267Z,11.53
2023-03-26T15:12:12.478Z,11.40
2023-03-26T15:15:25.211Z,11.26
2023-03-26T15:18:30.561Z,11.25
2023-03-26T15:21:30.298Z,11.27
2023-03-26T15:24:44.920Z,11.15
2023-03-26T15:27:40.563Z,11.16
2023-03-26T15:30:50.269Z,11.09
2023-03-26T15:33:46.074Z,10.89
2023-03-26T15:36:58.881Z,10.80
2023-03-26T15:39:44.138Z,10.60
2023-03-26T15:42:45.796Z,10.47
2023-03-26T15:45:33.088Z,10.25
2023-03-26T15:48:34.510Z,10.29
2023-03-26T15:51:24.090Z,10.09
2023-03-26T15:54:01.062Z,9.95
2023-03-26T15:56:49.518Z,9.90
2023-03-26T15:59:37.118Z,9.96
2023-03-26T16:02:18.263Z,9.94
2023-03-26T16:04:52.822Z,9.88
2023-03-26T16:07:42.892Z,9.79
2023-03-26T16:10:28.273Z,9.60
2023-03-26T16:13:23.806Z,9.60
2023-03-26T16:15:57.921Z,9.52
2023-03-26T16:18:34.412Z,9.48
2023-03-26T16:21:37.750Z,9.43
2023-03-26T16:25:29.654Z,9.46
2023-03-26T16:28:30.428Z,9.43
2023-03-26T16:31:36.996Z,9.39
2023-03-26T16:34:26.417Z,9.32
2023-03-26T16:36:55.095Z,9.36
2023-03-26T16:39:25.265Z,9.32
2023-03-26T16:42:26.530Z,9.30
2023-03-26T16:45:06.337Z,9.26
2023-03-26T16:47:44.349Z,9.22
2023-03-26T16:50:26.215Z,9.10
2023-03-26T16:53:02.066Z,9.03
2023-03-26T16:55:41.948Z,8.77
2023-03-26T16:58:24.047Z,8.56
2023-03-26T17:01:04.867Z,8.45
2023-03-26T17:03:39.897Z,8.44
2023-03-26T17:06:25.306Z,8.33
2023-03-26T17:09:00.423Z,8.24
2023-03-26T17:11:39.939Z,8.08
2023-03-26T17:14:26.741Z,7.94
2023-03-26T17:17:13.349Z,7.84
2023-03-26T17:19:52.758Z,7.77
2023-03-26T17:22:36.307Z,7.66
2023-03-26T17:25:32.170Z,7.55
2023-03-26T17:28:23.579Z,7.55
2023-03-26T17:31:03.349Z,7.47
2023-03-26T17:33:36.791Z,7.43
2023-03-26T17:36:41.085Z,7.36
2023-03-26T17:39:23.597Z,7.34
2023-03-26T17:41:57.193Z,7.31
2023-03-26T17:44:37.962Z,7.34
2023-03-26T17:47:20.939Z,7.29
2023-03-26T17:49:59.340Z,7.26
2023-03-26T17:52:35.175Z,7.18
2023-03-26T17:55:04.343Z,7.18
2023-03-26T17:57:42.085Z,7.09
2023-03-26T18:00:18.319Z,7.06
2023-03-26T18:02:54.331Z,7.04
2023-03-26T18:05:26.509Z,6.98
2023-03-26T18:08:37.261Z,6.99
2023-03-26T18:11:21.199Z,6.93
2023-03-26T18:14:24.844Z,6.85
2023-03-26T18:16:55.219Z,6.77
2023-03-26T18:19:26.038Z,6.72
2023-03-26T18:21:57.754Z,6.62
2023-03-26T18:24:29.829Z,6.58
2023-03-26T18:27:02.743Z,6.61
2023-03-26T18:29:33.848Z,6.65
2023-03-26T18:32:04.168Z,6.65
2023-03-26T18:34:36.720Z,6.63
2023-03-26T18:37:16.447Z,6.65
2023-03-26T18:39:58.296Z,6.76
2023-03-26T18:42:29.338Z,6.78
2023-03-26T18:45:00.494Z,6.76
2023-03-26T18:47:32.504Z,6.67
2023-03-26T18:50:07.488Z,6.65
2023-03-26T18:52:36.080Z,6.68
2023-03-26T18:55:08.092Z,6.77
2023-03-26T18:57:36.515Z,6.83
2023-03-26T19:00:20.673Z,6.85
2023-03-26T19:02:51.631Z,6.93
2023-03-26T19:05:21.793Z,7.02
2023-03-26T19:07:52.382Z,7.05
2023-03-26T19:10:22.274Z,7.07
2023-03-26T19:12:58.425Z,7.06
2023-03-26T19:15:30.162Z,6.99
2023-03-26T19:18:07.152Z,6.92
2023-03-26T19:20:42.313Z,6.86
2023-03-26T19:23:15.832Z,6.77
2023-03-26T19:25:48.248Z,6.66
2023-03-26T19:28:21.911Z,6.56
2023-03-26T19:30:55.833Z,6.53
2023-03-26T19:33:24.506Z,6.45
2023-03-26T19:36:03.543Z,6.38
2023-03-26T19:38:40.184Z,6.30
2023-03-26T19:41:19.806Z,6.20
2023-03-26T19:43:50.062Z,6.10
2023-03-26T19:46:19.095Z,6.00
2023-03-26T19:48:49.254Z,5.91
2023-03-26T19:51:23.590Z,5.84
2023-03-26T19:53:55.440Z,5.82
2023-03-26T19:56:26.816Z,5.75
2023-03-26T19:58:55.532Z,5.78
2023-03-26T20:01:26.880Z,5.74
2023-03-26T20:03:57.924Z,5.75
2023-03-26T20:06:41.620Z,5.79
2023-03-26T20:09:12.532Z,5.76
2023-03-26T20:11:43.576Z,5.75
2023-03-26T20:14:16.822Z,5.65
2023-03-26T20:16:46.161Z,5.68
2023-03-26T20:19:15.725Z,5.62
2023-03-26T20:21:46.236Z,5.53
2023-03-26T20:24:18.407Z,5.36
2023-03-26T20:26:49.382Z,5.53
2023-03-26T20:29:18.057Z,5.52
2023-03-26T20:31:48.527Z,5.51
2023-03-26T20:34:19.837Z,5.51
2023-03-26T20:36:55.618Z,5.50
2023-03-26T20:39:24.657Z,5.51
2023-03-26T20:41:56.603Z,5.49
2023-03-26T20:44:26.817Z,5.51
2023-03-26T20:46:56.700Z,5.51
2023-03-26T20:49:29.431Z,5.47
2023-03-26T20:52:00.680Z,5.47
2023-03-26T20:54:30.496Z,5.53
2023-03-26T20:56:58.732Z,5.54
2023-03-26T20:59:29.157Z,5.48
2023-03-26T21:01:59.484Z,5.44
2023-03-26T21:04:28.888Z,5.47
2023-03-26T21:07:07.196Z,5.45
2023-03-26T21:09:50.052Z,5.47
2023-03-26T21:12:24.810Z,5.43
2023-03-26T21:14:55.855Z,5.46
2023-03-26T21:17:25.368Z,5.47
2023-03-26T21:20:06.440Z,5.53
2023-03-26T21:22:41.059Z,5.50
2023-03-26T21:26:33.053Z,5.46
2023-03-26T21:29:02.480Z,5.50
2023-03-26T21:31:36.623Z,5.51
2023-03-26T21:34:08.422Z,5.53
2023-03-26T21:36:37.138Z,5.52
2023-03-26T21:39:06.606Z,5.57
2023-03-26T21:41:46.169Z,5.51
2023-03-26T21:44:15.349Z,5.54
2023-03-26T21:46:44.634Z,5.54
2023-03-26T21:49:15.009Z,5.50
2023-03-26T21:51:44.980Z,5.49
2023-03-26T21:54:25.094Z,5.47
2023-03-26T21:57:06.670Z,5.42
2023-03-26T21:59:44.835Z,5.41
2023-03-26T22:02:22.792Z,5.38
2023-03-26T22:04:55.154Z,5.29
2023-03-26T22:07:29.121Z,5.33
2023-03-26T22:09:58.084Z,5.33
2023-03-26T22:12:27.482Z,5.10
2023-03-26T22:14:55.719Z,5.26
2023-03-26T22:17:24.251Z,5.25
2023-03-26T22:19:52.373Z,5.24
2023-03-26T22:22:22.266Z,5.18
2023-03-26T22:24:50.301Z,5.14
2023-03-26T22:27:21.033Z,5.09
2023-03-26T22:29:50.444Z,5.05
2023-03-26T22:32:18.818Z,5.00
2023-03-26T22:34:48.697Z,5.03
2023-03-26T22:37:17.535Z,4.99
2023-03-26T22:39:47.831Z,4.91
2023-03-26T22:42:16.022Z,4.93
2023-03-26T22:44:46.582Z,4.89
2023-03-26T22:47:17.030Z,4.88
2023-03-26T22:49:45.880Z,4.87
2023-03-26T22:52:14.425Z,4.87
2023-03-26T22:54:42.724Z,4.89
2023-03-26T22:57:14.036Z,4.86
2023-03-26T22:59:42.288Z,4.83
2023-03-26T23:02:12.519Z,4.84
2023-03-26T23:04:42.632Z,4.85
2023-03-26T23:07:11.864Z,4.79
2023-03-26T23:09:39.930Z,4.81
2023-03-26T23:12:08.189Z,4.79
2023-03-26T23:14:36.706Z,4.82
2023-03-26T23:17:05.218Z,4.80
2023-03-26T23:19:37.266Z,4.77
2023-03-26T23:22:06.998Z,4.69
2023-03-26T23:24:37.966Z,4.70
2023-03-26T23:27:07.819Z,4.65
2023-03-26T23:29:36.713Z,4.65
2023-03-26T23:32:24.155Z,4.64
2023-03-26T23:34:53.290Z,4.57
2023-03-26T23:37:23.942Z,4.45
2023-03-26T23:39:52.882Z,4.22
2023-03-26T23:42:29.541Z,4.16
2023-03-26T23:45:01.263Z,4.08
2023-03-26T23:47:34.870Z,4.00
2023-03-26T23:50:05.163Z,3.95
2023-03-26T23:52:34.719Z,3.79
2023-03-26T23:55:04.646Z,3.84
2023-03-26T23:57:32.796Z,3.78
